Accueil
METAR-TAF:

METAR-TAF

Aéroports :

Aéroport international Mallam Aminu Kano

Kano, Nigeria

latitude: 12-03N, longitude: 008-32E, altitude: 476 m

Observation

Le bulletin a été fait il y a 19 heures et 37 minutes, à 04:00 UTC
Vent calme
Température 13°C
Humidité 38%
Pression 1020 hPa
Visibilité: 4000 m
brume sèche

METAR: DNKN 260400Z 00000KT 4000 HZ NSC 13/M01 Q1020 NOSIG

Heure: 00:37 (23:37 UTC)

Prévision

Le bulletin a été fait il y a 36 heures et 37 minutes, à 11:00 UTC
Prévision valable du 25 à 12 UTC au 26 à 18 UTC
Vent 14 kt de est/nord-est
Visibilité: 1500 m
brume sèche
Evoluant progressivement
du 25 à 20 UTC au 25 à 22 UTC
Visibilité: 3000 m
Temporairement
du 26 à 06 UTC au 26 à 11 UTC
Visibilité: 0800 m
poussière généralisée

TAF: DNKN 251100Z 2512/2618 07014KT 1500 HZ NSC BECMG 2520/2522 3000 TEMPO 2606/2611 0800 DU

Observations et prévisions météorologiques de plus de 4000 aéroports (messages METAR et TAF).

Les stations disponibles sont représentées par des disques jaunes et rouges sur la carte.

Passer la souris dessus pour voir le nom de la station.

Cliquer dessus pour voir les observations et prévisions météorologiques.

Pour changer de carte: cliquez sur les boutons verts avec une croix noire pour zoomer, sur le bouton vert avec un tiret pour effectuer un zoom arrière, ou sur les flèches vertes pour les cartes adjacentes.


METAR-TAF: